createdAt,value
2022-11-30T00:01:25.073Z,18.80
2022-11-30T00:03:55.024Z,19.90
2022-11-30T00:06:24.330Z,18.50
2022-11-30T00:08:53.612Z,18.20
2022-11-30T00:11:23.450Z,17.80
2022-11-30T00:13:51.830Z,16.50
2022-11-30T00:16:19.935Z,21.20
2022-11-30T00:18:48.113Z,21.40
2022-11-30T00:21:17.807Z,21.50
2022-11-30T00:23:47.889Z,24.60
2022-11-30T00:26:18.721Z,24.30
2022-11-30T00:28:47.845Z,23.60
2022-11-30T00:31:18.130Z,22.90
2022-11-30T00:33:46.900Z,20.20
2022-11-30T00:36:20.309Z,18.00
2022-11-30T00:38:50.092Z,18.90
2022-11-30T00:41:19.692Z,27.30
2022-11-30T00:43:48.039Z,26.60
2022-11-30T00:46:16.178Z,24.80
2022-11-30T00:48:44.490Z,29.00
2022-11-30T00:51:13.308Z,22.60
2022-11-30T00:53:42.124Z,18.50
2022-11-30T00:56:11.110Z,20.80
2022-11-30T00:58:39.273Z,30.40
2022-11-30T01:01:08.450Z,17.90
2022-11-30T01:03:37.033Z,29.40
2022-11-30T01:06:08.309Z,24.00
2022-11-30T01:08:37.412Z,26.60
2022-11-30T01:11:17.618Z,20.50
2022-11-30T01:13:45.687Z,19.50
2022-11-30T01:16:17.755Z,18.60
2022-11-30T01:18:46.895Z,17.30
2022-11-30T01:21:17.570Z,19.80
2022-11-30T01:23:46.416Z,21.30
2022-11-30T01:26:14.819Z,18.80
2022-11-30T01:28:44.472Z,17.10
2022-11-30T01:31:14.943Z,16.90
2022-11-30T01:33:43.623Z,17.40
2022-11-30T01:36:14.552Z,15.40
2022-11-30T01:38:55.781Z,18.00
2022-11-30T01:41:25.820Z,15.80
2022-11-30T01:43:56.873Z,17.90
2022-11-30T01:46:44.190Z,20.80
2022-11-30T01:49:32.007Z,21.60
2022-11-30T01:52:07.697Z,19.30
2022-11-30T01:55:14.660Z,16.90
2022-11-30T01:57:48.497Z,20.60
2022-11-30T02:00:17.221Z,19.70
2022-11-30T02:03:11.442Z,18.20
2022-11-30T02:05:41.597Z,18.60
2022-11-30T02:08:11.243Z,13.50
2022-11-30T02:10:43.638Z,17.20
2022-11-30T02:13:17.576Z,17.10
2022-11-30T02:16:27.429Z,14.40
2022-11-30T02:19:24.754Z,19.40
2022-11-30T02:22:20.786Z,21.80
2022-11-30T02:25:26.383Z,19.50
2022-11-30T02:28:18.991Z,19.60
2022-11-30T02:30:52.391Z,19.60
2022-11-30T02:33:25.986Z,29.50
2022-11-30T02:35:55.986Z,21.30
2022-11-30T02:38:26.986Z,16.00
2022-11-30T02:40:55.441Z,14.30
2022-11-30T02:43:25.874Z,15.20
2022-11-30T02:46:28.030Z,16.40
2022-11-30T02:51:38.265Z,11.80
2022-11-30T02:54:06.377Z,14.40
2022-11-30T02:56:34.662Z,12.50
2022-11-30T02:59:02.827Z,13.20
2022-11-30T03:01:30.961Z,13.50
2022-11-30T03:03:58.976Z,12.20
2022-11-30T03:06:26.953Z,13.20
2022-11-30T03:08:54.981Z,14.00
2022-11-30T03:11:23.050Z,13.30
2022-11-30T03:13:51.157Z,13.30
2022-11-30T03:16:19.241Z,14.00
2022-11-30T03:18:47.314Z,14.90
2022-11-30T03:21:15.355Z,13.30
2022-11-30T03:23:43.431Z,13.10
2022-11-30T03:26:11.590Z,12.60
2022-11-30T03:28:39.672Z,12.70
2022-11-30T03:31:12.774Z,13.30
2022-11-30T03:33:42.348Z,12.50
2022-11-30T03:36:12.069Z,13.50
2022-11-30T03:38:40.625Z,13.10
2022-11-30T03:41:12.382Z,13.20
2022-11-30T03:46:09.539Z,11.50
2022-11-30T03:48:38.465Z,13.10
2022-11-30T03:51:07.470Z,12.40
2022-11-30T03:53:35.484Z,11.70
2022-11-30T03:56:06.358Z,11.80
2022-11-30T03:58:35.261Z,12.30
2022-11-30T04:01:24.231Z,9.90
2022-11-30T04:03:53.003Z,12.20
2022-11-30T04:06:21.903Z,13.00
2022-11-30T04:08:50.358Z,12.80
2022-11-30T04:11:18.566Z,11.20
2022-11-30T04:13:46.644Z,13.90
2022-11-30T04:16:21.107Z,11.60
2022-11-30T04:18:49.155Z,12.50
2022-11-30T04:21:17.183Z,10.70
2022-11-30T04:23:45.469Z,10.00
2022-11-30T04:26:15.184Z,10.70
2022-11-30T04:28:43.704Z,11.00
2022-11-30T04:31:12.661Z,12.90
2022-11-30T04:33:40.716Z,10.80
2022-11-30T04:36:17.799Z,9.70
2022-11-30T04:38:46.564Z,9.50
2022-11-30T04:41:14.957Z,10.40
2022-11-30T04:43:42.949Z,9.50
2022-11-30T04:46:11.140Z,10.70
2022-11-30T04:48:39.265Z,10.50
2022-11-30T04:51:08.995Z,10.90
2022-11-30T04:53:38.291Z,10.90
2022-11-30T04:56:08.136Z,12.80
2022-11-30T04:58:36.702Z,13.60
2022-11-30T05:01:05.270Z,12.30
2022-11-30T05:03:33.456Z,11.70
2022-11-30T05:06:01.950Z,13.20
2022-11-30T05:08:30.524Z,12.10
2022-11-30T05:10:58.854Z,11.50
2022-11-30T05:13:27.271Z,11.00
2022-11-30T05:15:55.345Z,10.90
2022-11-30T05:18:23.718Z,10.50
2022-11-30T05:20:53.585Z,11.10
2022-11-30T05:23:22.203Z,12.10
2022-11-30T05:25:50.350Z,13.00
2022-11-30T05:28:18.509Z,11.40
2022-11-30T05:30:46.811Z,13.30
2022-11-30T05:33:15.097Z,11.60
2022-11-30T05:35:43.692Z,12.30
2022-11-30T05:38:11.788Z,18.20
2022-11-30T05:40:39.819Z,18.50
2022-11-30T05:43:07.834Z,14.50
2022-11-30T05:45:35.930Z,13.30
2022-11-30T05:48:04.110Z,11.90
2022-11-30T05:50:32.200Z,11.20
2022-11-30T05:53:01.118Z,12.80
2022-11-30T05:55:29.809Z,14.20
2022-11-30T05:57:58.107Z,21.80
2022-11-30T06:00:26.669Z,21.40
2022-11-30T06:02:58.791Z,15.90
2022-11-30T06:05:28.113Z,13.40
2022-11-30T06:07:59.736Z,11.90
2022-11-30T06:10:27.957Z,11.60
2022-11-30T06:12:56.022Z,13.30
2022-11-30T06:15:24.065Z,14.40
2022-11-30T06:17:52.176Z,17.00
2022-11-30T06:20:20.189Z,14.10
2022-11-30T06:22:48.231Z,15.80
2022-11-30T06:25:16.306Z,16.70
2022-11-30T06:27:44.337Z,12.60
2022-11-30T06:30:13.061Z,10.20
2022-11-30T06:32:45.440Z,9.20
2022-11-30T06:35:14.275Z,17.00
2022-11-30T06:37:43.296Z,10.90
2022-11-30T06:40:13.140Z,12.40
2022-11-30T06:42:41.128Z,15.40
2022-11-30T06:45:09.823Z,12.30
2022-11-30T06:47:37.873Z,19.80
2022-11-30T06:50:08.330Z,15.70
2022-11-30T06:52:36.367Z,20.60
2022-11-30T06:55:04.697Z,15.10
2022-11-30T06:57:32.752Z,14.00
2022-11-30T07:00:00.786Z,16.00
2022-11-30T07:02:28.871Z,12.60
2022-11-30T07:04:57.354Z,21.50
2022-11-30T07:07:25.571Z,12.50
2022-11-30T07:09:53.694Z,13.20
2022-11-30T07:12:21.719Z,63.90
2022-11-30T07:14:53.042Z,78.60
2022-11-30T07:17:21.107Z,121.90
2022-11-30T07:19:49.280Z,75.80
2022-11-30T07:22:17.271Z,92.70
2022-11-30T07:25:03.885Z,69.10
2022-11-30T07:27:31.935Z,144.20
2022-11-30T07:30:00.018Z,47.90
2022-11-30T07:32:28.097Z,63.10
2022-11-30T07:34:56.151Z,29.70
2022-11-30T07:37:24.523Z,13.40
2022-11-30T07:39:52.624Z,19.30
2022-11-30T07:42:20.759Z,18.10
2022-11-30T07:44:55.264Z,20.60
2022-11-30T07:47:26.723Z,21.30
2022-11-30T07:49:54.819Z,20.70
2022-11-30T07:52:23.179Z,15.60
2022-11-30T07:54:51.227Z,14.30
2022-11-30T07:57:19.358Z,16.70
2022-11-30T07:59:47.627Z,18.50
2022-11-30T08:02:16.065Z,19.10
2022-11-30T08:04:44.467Z,17.30
2022-11-30T08:07:16.225Z,23.00
2022-11-30T08:09:45.321Z,19.90
2022-11-30T08:12:13.398Z,13.50
2022-11-30T08:15:17.521Z,17.20
2022-11-30T08:17:29.495Z,14.70
2022-11-30T08:19:57.515Z,15.70
2022-11-30T08:22:25.527Z,16.80
2022-11-30T08:24:53.610Z,14.80
2022-11-30T08:27:21.770Z,15.10
2022-11-30T08:29:49.835Z,12.70
2022-11-30T08:32:18.459Z,17.70
2022-11-30T08:34:47.222Z,13.80
2022-11-30T08:37:15.432Z,14.90
2022-11-30T08:39:43.413Z,13.80
2022-11-30T08:42:12.456Z,13.70
2022-11-30T08:44:40.525Z,13.70
2022-11-30T08:47:08.660Z,15.80
2022-11-30T08:49:36.774Z,12.40
2022-11-30T08:52:20.378Z,12.80
2022-11-30T08:54:49.047Z,14.30
2022-11-30T08:57:20.083Z,13.90
2022-11-30T08:59:48.674Z,17.60
2022-11-30T09:02:19.645Z,19.00
2022-11-30T09:04:49.600Z,18.90
2022-11-30T09:07:18.247Z,31.20
2022-11-30T09:09:46.621Z,16.70
2022-11-30T09:12:14.989Z,16.90
2022-11-30T09:14:43.022Z,13.40
2022-11-30T09:17:11.162Z,14.90
2022-11-30T09:19:39.763Z,14.90
2022-11-30T09:22:07.810Z,14.40
2022-11-30T09:24:36.297Z,12.20
2022-11-30T09:27:04.345Z,16.90
2022-11-30T09:29:32.616Z,17.50
2022-11-30T09:32:00.628Z,17.00
2022-11-30T09:34:28.777Z,18.90
2022-11-30T09:36:56.921Z,16.30
2022-11-30T09:39:25.262Z,20.10
2022-11-30T09:42:50.575Z,14.90
2022-11-30T09:45:30.649Z,14.50
2022-11-30T09:47:59.077Z,17.40
2022-11-30T09:50:32.286Z,17.50
2022-11-30T09:53:10.821Z,20.50
2022-11-30T09:55:43.838Z,23.80
2022-11-30T09:58:50.977Z,20.20
2022-11-30T10:01:20.962Z,20.00
2022-11-30T10:03:49.789Z,18.30
2022-11-30T10:06:25.683Z,19.90
2022-11-30T10:09:02.711Z,17.90
2022-11-30T10:11:30.674Z,20.00
2022-11-30T10:14:26.242Z,20.30
2022-11-30T10:17:18.469Z,21.10
2022-11-30T10:22:35.975Z,16.00
2022-11-30T10:25:30.263Z,17.10
2022-11-30T10:28:30.880Z,17.10
2022-11-30T10:30:55.506Z,17.00
2022-11-30T10:33:37.036Z,16.60
2022-11-30T10:36:13.300Z,15.30
2022-11-30T10:41:18.194Z,15.50
2022-11-30T10:43:49.383Z,15.50
2022-11-30T10:46:31.412Z,18.40
2022-11-30T10:49:17.090Z,17.70
2022-11-30T10:51:56.844Z,17.90
2022-11-30T10:54:24.925Z,16.80
2022-11-30T10:56:53.199Z,18.30
2022-11-30T10:59:30.160Z,16.40
2022-11-30T11:01:58.298Z,17.60
2022-11-30T11:04:28.054Z,20.10
2022-11-30T11:07:14.903Z,19.80
2022-11-30T11:09:50.564Z,18.40
2022-11-30T11:12:25.140Z,36.60
2022-11-30T11:15:15.283Z,41.20
2022-11-30T11:17:43.358Z,18.60
2022-11-30T11:20:31.575Z,17.80
2022-11-30T11:23:00.099Z,18.50
2022-11-30T11:25:32.956Z,21.00
2022-11-30T11:28:08.938Z,24.50
2022-11-30T11:30:38.065Z,22.90
2022-11-30T11:33:14.776Z,17.50
2022-11-30T11:35:46.609Z,25.80
2022-11-30T11:40:56.351Z,23.70
2022-11-30T11:43:27.525Z,19.40
2022-11-30T11:46:01.888Z,16.80
2022-11-30T11:48:38.668Z,18.90
2022-11-30T11:51:09.408Z,14.60
2022-11-30T11:53:48.708Z,21.80
2022-11-30T11:56:26.713Z,21.50
2022-11-30T11:59:03.250Z,20.30
2022-11-30T12:01:40.644Z,23.50
2022-11-30T12:04:35.618Z,25.60
2022-11-30T12:07:17.947Z,17.40
2022-11-30T12:10:50.749Z,175.90
2022-11-30T12:13:24.726Z,392.80
2022-11-30T12:16:05.139Z,315.50
2022-11-30T12:18:58.140Z,47.60
2022-11-30T12:21:52.247Z,40.40
2022-11-30T12:24:26.061Z,25.00
2022-11-30T12:27:03.561Z,24.60
2022-11-30T12:29:49.882Z,29.30
2022-11-30T12:32:57.495Z,25.70
2022-11-30T12:35:27.208Z,23.80
2022-11-30T12:38:16.181Z,23.30
2022-11-30T12:41:07.816Z,17.50
2022-11-30T12:43:55.663Z,17.20
2022-11-30T12:46:41.889Z,20.20
2022-11-30T12:52:25.027Z,18.50
2022-11-30T12:54:59.115Z,14.40
2022-11-30T12:57:38.569Z,17.00
2022-11-30T13:00:26.951Z,17.10
2022-11-30T13:02:58.046Z,18.50
2022-11-30T13:05:40.826Z,23.00
2022-11-30T13:08:20.312Z,20.90
2022-11-30T13:11:03.694Z,25.50
2022-11-30T13:13:34.257Z,33.20
2022-11-30T13:16:06.019Z,28.90
2022-11-30T13:21:23.462Z,21.00
2022-11-30T13:24:42.789Z,23.00
2022-11-30T13:27:20.246Z,23.40
2022-11-30T13:29:56.207Z,22.40
2022-11-30T13:32:56.749Z,30.90
2022-11-30T13:35:28.899Z,29.20
2022-11-30T13:38:35.643Z,25.20
2022-11-30T13:41:05.899Z,23.70
2022-11-30T13:43:52.235Z,23.50
2022-11-30T13:46:24.173Z,25.00
2022-11-30T13:49:35.931Z,22.10
2022-11-30T13:52:23.311Z,17.90
2022-11-30T13:54:58.398Z,18.60
2022-11-30T13:57:29.209Z,18.70
2022-11-30T13:59:59.875Z,37.00
2022-11-30T14:02:34.282Z,46.10
2022-11-30T14:05:20.301Z,56.00
2022-11-30T14:08:00.762Z,62.20
2022-11-30T14:10:38.037Z,54.60
2022-11-30T14:13:30.017Z,76.70
2022-11-30T14:16:00.811Z,44.30
2022-11-30T14:18:42.826Z,38.20
2022-11-30T14:21:22.293Z,41.00
2022-11-30T14:24:06.859Z,42.50
2022-11-30T14:26:43.658Z,63.90
2022-11-30T14:29:20.078Z,64.30
2022-11-30T14:31:48.228Z,37.10
2022-11-30T14:34:21.535Z,46.90
2022-11-30T14:36:58.370Z,51.10
2022-11-30T14:39:27.994Z,44.80
2022-11-30T14:41:56.209Z,32.50
2022-11-30T14:44:24.269Z,41.10
2022-11-30T14:46:52.511Z,47.80
2022-11-30T14:49:23.638Z,51.20
2022-11-30T14:52:02.665Z,54.40
2022-11-30T14:55:10.883Z,61.10
2022-11-30T14:58:20.130Z,52.50
2022-11-30T15:00:49.449Z,49.30
2022-11-30T15:03:23.494Z,41.50
2022-11-30T15:05:54.892Z,38.70
2022-11-30T15:08:24.492Z,29.10
2022-11-30T15:10:56.641Z,39.20
2022-11-30T15:13:24.790Z,37.10
2022-11-30T15:15:55.325Z,68.40
2022-11-30T15:18:25.232Z,50.30
2022-11-30T15:21:02.351Z,63.90
2022-11-30T15:23:30.476Z,70.60
2022-11-30T15:26:14.482Z,76.50
2022-11-30T15:28:47.426Z,147.20
2022-11-30T15:31:17.217Z,269.10
2022-11-30T15:33:47.802Z,107.00
2022-11-30T15:36:31.911Z,141.80
2022-11-30T15:39:07.222Z,91.30
2022-11-30T15:41:36.356Z,58.50
2022-11-30T15:44:04.579Z,72.40
2022-11-30T15:46:44.515Z,105.40
2022-11-30T15:52:04.358Z,123.90
2022-11-30T15:54:55.446Z,122.70
2022-11-30T15:57:25.431Z,85.40
2022-11-30T16:00:09.146Z,61.30
2022-11-30T16:02:38.064Z,56.30
2022-11-30T16:05:14.684Z,57.50
2022-11-30T16:08:00.135Z,54.90
2022-11-30T16:10:38.898Z,53.80
2022-11-30T16:13:06.959Z,53.60
2022-11-30T16:15:37.046Z,56.30
2022-11-30T16:18:22.275Z,62.40
2022-11-30T16:20:53.938Z,67.10
2022-11-30T16:23:22.411Z,72.40
2022-11-30T16:25:51.020Z,57.10
2022-11-30T16:28:21.031Z,56.00
2022-11-30T16:30:50.190Z,56.90
2022-11-30T16:33:23.210Z,44.50
2022-11-30T16:36:01.554Z,36.40
2022-11-30T16:38:29.702Z,34.30
2022-11-30T16:41:14.061Z,36.70
2022-11-30T16:43:43.309Z,31.00
2022-11-30T16:46:19.631Z,38.20
2022-11-30T16:48:49.010Z,35.60
2022-11-30T16:51:27.574Z,31.80
2022-11-30T16:53:56.114Z,30.90
2022-11-30T16:56:24.913Z,26.40
2022-11-30T16:58:53.370Z,29.30
2022-11-30T17:01:35.506Z,27.50
2022-11-30T17:04:26.163Z,29.80
2022-11-30T17:07:00.441Z,24.20
2022-11-30T17:09:30.685Z,27.70
2022-11-30T17:11:58.754Z,35.20
2022-11-30T17:14:26.759Z,26.00
2022-11-30T17:16:54.948Z,35.60
2022-11-30T17:19:23.046Z,29.80
2022-11-30T17:21:51.110Z,27.00
2022-11-30T17:24:19.267Z,35.50
2022-11-30T17:26:47.396Z,26.60
2022-11-30T17:29:15.520Z,28.40
2022-11-30T17:31:43.546Z,24.60
2022-11-30T17:34:11.572Z,22.70
2022-11-30T17:36:39.653Z,25.00
2022-11-30T17:39:09.124Z,27.50
2022-11-30T17:41:37.163Z,31.10
2022-11-30T17:44:05.205Z,30.10
2022-11-30T17:46:33.280Z,38.10
2022-11-30T17:49:01.299Z,38.70
2022-11-30T17:51:29.559Z,62.40
2022-11-30T17:53:58.048Z,64.80
2022-11-30T17:56:28.689Z,71.00
2022-11-30T17:58:56.739Z,73.30
2022-11-30T18:01:26.854Z,58.10
2022-11-30T18:03:56.518Z,52.70
2022-11-30T18:06:24.955Z,51.80
2022-11-30T18:08:55.807Z,68.70
2022-11-30T18:11:26.224Z,67.50
2022-11-30T18:13:56.352Z,52.30
2022-11-30T18:16:27.096Z,31.80
2022-11-30T18:18:57.704Z,24.30
2022-11-30T18:21:29.040Z,22.20
2022-11-30T18:23:58.389Z,26.20
2022-11-30T18:26:27.520Z,24.90
2022-11-30T18:28:57.943Z,25.90
2022-11-30T18:31:28.086Z,26.30
2022-11-30T18:34:05.301Z,25.80
2022-11-30T18:36:34.588Z,27.40
2022-11-30T18:39:03.130Z,31.50
2022-11-30T18:41:31.222Z,31.60
2022-11-30T18:43:59.308Z,30.50
2022-11-30T18:46:27.724Z,32.00
2022-11-30T18:48:56.571Z,33.10
2022-11-30T18:51:27.762Z,31.70
2022-11-30T18:53:58.646Z,31.20
2022-11-30T18:56:30.080Z,19.10
2022-11-30T18:59:00.951Z,31.40
2022-11-30T19:01:30.686Z,42.30
2022-11-30T19:04:02.591Z,47.80
2022-11-30T19:06:33.528Z,47.70
2022-11-30T19:09:05.492Z,38.10
2022-11-30T19:14:04.105Z,38.70
2022-11-30T19:16:37.452Z,41.80
2022-11-30T19:19:08.335Z,37.10
2022-11-30T19:21:37.311Z,34.90
2022-11-30T19:24:07.001Z,38.50
2022-11-30T19:26:36.700Z,40.40
2022-11-30T19:29:05.732Z,37.00
2022-11-30T19:31:34.929Z,39.20
2022-11-30T19:34:09.093Z,35.70
2022-11-30T19:36:41.525Z,34.70
2022-11-30T19:39:11.283Z,31.30
2022-11-30T19:41:40.335Z,36.70
2022-11-30T19:44:14.541Z,56.90
2022-11-30T19:49:12.556Z,52.50
2022-11-30T19:51:42.096Z,43.20
2022-11-30T19:54:11.984Z,42.70
2022-11-30T19:56:43.164Z,34.50
2022-11-30T19:59:11.855Z,32.70
2022-11-30T20:01:40.617Z,32.10
2022-11-30T20:04:09.403Z,32.70
2022-11-30T20:06:39.051Z,29.60
2022-11-30T20:09:09.330Z,28.80
2022-11-30T20:11:37.844Z,28.70
2022-11-30T20:14:06.200Z,25.60
2022-11-30T20:16:34.363Z,24.20
2022-11-30T20:19:03.294Z,24.80
2022-11-30T20:21:34.723Z,20.60
2022-11-30T20:24:07.193Z,19.90
2022-11-30T20:26:38.384Z,19.60
2022-11-30T20:29:08.519Z,20.80
2022-11-30T20:31:37.716Z,15.50
2022-11-30T20:34:08.344Z,18.60
2022-11-30T20:36:37.239Z,18.60
2022-11-30T20:39:06.204Z,16.70
2022-11-30T20:41:34.516Z,18.00
2022-11-30T20:44:03.094Z,17.10
2022-11-30T20:46:33.762Z,18.50
2022-11-30T20:49:03.563Z,15.60
2022-11-30T20:51:36.609Z,13.60
2022-11-30T20:54:07.295Z,15.20
2022-11-30T20:56:37.516Z,15.60
2022-11-30T20:59:09.397Z,14.90
2022-11-30T21:01:37.544Z,15.40
2022-11-30T21:04:05.645Z,14.30
2022-11-30T21:06:33.775Z,15.80
2022-11-30T21:09:02.023Z,14.10
2022-11-30T21:11:31.323Z,15.10
2022-11-30T21:13:59.683Z,15.40
2022-11-30T21:16:29.764Z,15.30
2022-11-30T21:19:00.001Z,14.00
2022-11-30T21:21:33.465Z,17.00
2022-11-30T21:24:04.030Z,20.40
2022-11-30T21:26:34.699Z,21.00
2022-11-30T21:29:07.068Z,21.50
2022-11-30T21:31:35.974Z,19.40
2022-11-30T21:34:04.103Z,20.90
2022-11-30T21:36:32.554Z,17.70
2022-11-30T21:39:06.036Z,17.90
2022-11-30T21:41:37.733Z,17.20
2022-11-30T21:44:08.317Z,16.10
2022-11-30T21:46:36.446Z,15.70
2022-11-30T21:49:04.900Z,14.20
2022-11-30T21:51:33.618Z,14.00
2022-11-30T21:54:05.307Z,13.20
2022-11-30T21:56:36.130Z,13.10
2022-11-30T21:59:07.610Z,14.20
2022-11-30T22:01:38.701Z,12.70
2022-11-30T22:04:09.450Z,16.00
2022-11-30T22:06:39.493Z,12.40
2022-11-30T22:09:12.699Z,12.70
2022-11-30T22:11:42.981Z,11.50
2022-11-30T22:14:14.098Z,11.90
2022-11-30T22:16:42.626Z,12.10
2022-11-30T22:19:11.264Z,12.20
2022-11-30T22:21:39.771Z,13.30
2022-11-30T22:24:11.116Z,16.90
2022-11-30T22:26:44.295Z,15.00
2022-11-30T22:29:15.650Z,15.50
2022-11-30T22:31:45.767Z,18.50
2022-11-30T22:34:14.081Z,21.10
2022-11-30T22:36:43.620Z,15.40
2022-11-30T22:39:14.683Z,16.50
2022-11-30T22:41:45.278Z,17.40
2022-11-30T22:44:15.521Z,16.60
2022-11-30T22:46:44.734Z,15.30
2022-11-30T22:49:20.297Z,13.70
2022-11-30T22:51:49.888Z,13.30
2022-11-30T22:54:18.560Z,14.90
2022-11-30T22:56:47.001Z,13.70
2022-11-30T22:59:15.975Z,14.90
2022-11-30T23:01:47.181Z,15.40
2022-11-30T23:04:18.482Z,12.80
2022-11-30T23:06:48.434Z,14.40
2022-11-30T23:09:19.616Z,17.10
2022-11-30T23:11:48.615Z,17.60
2022-11-30T23:14:17.462Z,13.60
2022-11-30T23:16:46.172Z,15.40
2022-11-30T23:19:15.419Z,14.00
2022-11-30T23:21:47.181Z,12.90
2022-11-30T23:24:20.430Z,13.60
2022-11-30T23:26:49.314Z,14.80
2022-11-30T23:29:18.235Z,15.80
2022-11-30T23:31:47.645Z,13.00
2022-11-30T23:34:19.871Z,12.60
2022-11-30T23:36:49.099Z,12.00
2022-11-30T23:39:18.702Z,11.20
2022-11-30T23:41:46.868Z,12.00
2022-11-30T23:44:15.149Z,12.40
2022-11-30T23:46:43.400Z,11.50
2022-11-30T23:49:14.145Z,13.90
2022-11-30T23:51:43.127Z,13.30
2022-11-30T23:54:11.164Z,12.80
2022-11-30T23:56:39.183Z,12.70
2022-11-30T23:59:07.214Z,12.60
